createdAt,value
2019-05-16T00:02:01.371Z,100910.14
2019-05-16T00:04:30.193Z,100902.24
2019-05-16T00:06:59.334Z,100913.72
2019-05-16T00:09:28.712Z,100901.80
2019-05-16T00:11:58.148Z,100903.58
2019-05-16T00:14:28.129Z,100902.25
2019-05-16T00:16:58.897Z,100901.81
2019-05-16T00:19:28.762Z,100900.94
2019-05-16T00:21:58.148Z,100900.50
2019-05-16T00:24:29.111Z,100900.09
2019-05-16T00:26:58.106Z,100899.22
2019-05-16T00:29:27.700Z,100897.45
2019-05-16T00:31:58.024Z,100904.08
2019-05-16T00:34:27.956Z,100579.51
2019-05-16T00:36:58.210Z,100896.58
2019-05-16T00:39:28.064Z,100898.34
2019-05-16T00:41:58.426Z,100899.67
2019-05-16T00:44:28.155Z,100890.87
2019-05-16T00:46:58.077Z,100892.20
2019-05-16T00:49:28.088Z,100889.99
2019-05-16T00:51:58.491Z,100896.61
2019-05-16T00:54:27.844Z,100891.31
2019-05-16T00:56:57.832Z,100886.46
2019-05-16T00:59:27.674Z,100886.91
2019-05-16T01:01:58.788Z,100887.34
2019-05-16T01:04:28.799Z,100882.50
2019-05-16T01:06:58.984Z,100878.09
2019-05-16T01:09:28.880Z,100869.27
2019-05-16T01:11:58.051Z,100869.27
2019-05-16T01:14:28.264Z,100875.00
2019-05-16T01:16:58.111Z,100877.64
2019-05-16T01:19:27.870Z,100870.15
2019-05-16T01:21:59.039Z,100867.06
2019-05-16T01:24:29.229Z,100639.39
2019-05-16T01:26:58.555Z,100863.53
2019-05-16T01:29:28.207Z,100867.50
2019-05-16T01:31:59.026Z,100863.09
2019-05-16T01:34:28.517Z,100862.20
2019-05-16T01:36:59.019Z,100863.53
2019-05-16T01:39:28.806Z,100864.44
2019-05-16T01:41:58.665Z,100857.39
2019-05-16T01:44:28.831Z,100857.39
2019-05-16T01:46:58.581Z,100850.77
2019-05-16T01:49:28.094Z,100854.30
2019-05-16T01:51:57.910Z,100853.41
2019-05-16T01:54:28.265Z,100850.33
2019-05-16T01:56:59.406Z,100848.13
2019-05-16T01:59:28.475Z,100844.16
2019-05-16T02:02:00.706Z,100841.51
2019-05-16T02:04:28.779Z,100843.27
2019-05-16T02:06:58.485Z,100847.23
2019-05-16T02:09:28.167Z,100832.28
2019-05-16T02:11:58.894Z,100831.39
2019-05-16T02:14:28.390Z,100826.10
2019-05-16T02:16:58.085Z,100821.69
2019-05-16T02:19:28.361Z,100823.02
2019-05-16T02:21:59.620Z,100821.69
2019-05-16T02:24:28.531Z,100822.12
2019-05-16T02:26:58.953Z,100816.40
2019-05-16T02:29:29.887Z,100809.78
2019-05-16T02:32:01.867Z,100809.34
2019-05-16T02:34:30.780Z,100679.87
2019-05-16T02:37:19.039Z,100812.89
2019-05-16T02:39:30.933Z,100810.69
2019-05-16T02:42:01.109Z,100803.63
2019-05-16T02:44:31.919Z,100808.91
2019-05-16T02:47:01.796Z,100804.95
2019-05-16T02:49:34.182Z,100800.09
2019-05-16T02:52:01.983Z,100799.64
2019-05-16T02:54:31.734Z,100797.47
2019-05-16T02:57:01.565Z,100795.27
2019-05-16T02:59:30.930Z,100796.59
2019-05-16T03:02:01.094Z,100791.73
2019-05-16T03:04:30.857Z,100788.66
2019-05-16T03:07:01.464Z,100791.30
2019-05-16T03:09:32.164Z,100790.86
2019-05-16T03:12:03.273Z,100604.10
2019-05-16T03:14:32.926Z,100788.64
2019-05-16T03:17:04.794Z,100788.19
2019-05-16T03:19:37.219Z,100784.69
2019-05-16T03:22:07.616Z,100786.44
2019-05-16T03:24:36.813Z,100780.28
2019-05-16T03:27:05.969Z,100781.59
2019-05-16T03:29:35.103Z,100776.75
2019-05-16T03:32:04.219Z,100774.55
2019-05-16T03:34:34.204Z,100772.77
2019-05-16T03:37:05.011Z,100770.58
2019-05-16T03:39:34.414Z,100766.61
2019-05-16T03:42:03.572Z,100768.38
2019-05-16T03:44:32.697Z,100758.24
2019-05-16T03:47:01.842Z,100763.53
2019-05-16T03:49:31.431Z,100761.31
2019-05-16T03:52:01.720Z,100757.36
2019-05-16T03:54:31.613Z,100760.88
2019-05-16T03:57:00.902Z,100755.14
2019-05-16T03:59:31.497Z,100756.02
2019-05-16T04:02:01.426Z,100755.58
2019-05-16T04:04:31.065Z,100757.78
2019-05-16T04:07:01.355Z,100761.30
2019-05-16T04:09:31.505Z,100756.45
2019-05-16T04:12:01.909Z,100754.70
2019-05-16T04:14:31.537Z,100747.22
2019-05-16T04:17:01.779Z,100749.00
2019-05-16T04:19:31.700Z,100743.27
2019-05-16T04:22:01.470Z,100743.72
2019-05-16T04:24:31.640Z,100748.54
2019-05-16T04:27:01.208Z,100745.89
2019-05-16T04:29:31.647Z,100744.57
2019-05-16T04:32:01.779Z,100740.61
2019-05-16T04:34:31.370Z,100748.56
2019-05-16T04:37:01.337Z,100747.23
2019-05-16T04:39:31.945Z,100749.44
2019-05-16T04:42:01.771Z,100740.62
2019-05-16T04:44:31.260Z,100743.26
2019-05-16T04:47:01.530Z,100745.03
2019-05-16T04:49:31.993Z,100747.23
2019-05-16T04:52:01.346Z,100742.83
2019-05-16T04:54:30.990Z,100743.27
2019-05-16T04:57:01.573Z,100743.71
2019-05-16T04:59:31.369Z,100741.52
2019-05-16T05:02:01.995Z,100736.23
2019-05-16T05:04:31.526Z,100736.66
2019-05-16T05:07:00.864Z,100736.22
2019-05-16T05:09:31.694Z,100737.98
2019-05-16T05:12:04.271Z,100730.51
2019-05-16T05:14:31.934Z,100730.95
2019-05-16T05:17:05.129Z,100729.63
2019-05-16T05:19:32.054Z,100730.07
2019-05-16T05:22:01.415Z,100729.63
2019-05-16T05:24:30.534Z,100727.44
2019-05-16T05:26:59.889Z,100726.11
2019-05-16T05:29:30.710Z,100731.39
2019-05-16T05:32:04.598Z,100725.20
2019-05-16T05:34:30.891Z,100727.41
2019-05-16T05:37:00.390Z,100723.00
2019-05-16T05:39:30.304Z,100716.41
2019-05-16T05:42:00.093Z,100717.30
2019-05-16T05:44:30.677Z,100719.49
2019-05-16T05:47:00.564Z,100719.94
2019-05-16T05:49:30.280Z,100717.30
2019-05-16T05:52:00.827Z,100713.78
2019-05-16T05:54:30.852Z,100710.27
2019-05-16T05:57:00.687Z,100705.42
2019-05-16T05:59:30.706Z,100715.11
2019-05-16T06:02:00.994Z,100706.75
2019-05-16T06:04:30.581Z,100713.32
2019-05-16T06:07:01.254Z,100713.77
2019-05-16T06:09:33.093Z,100714.22
2019-05-16T06:12:01.784Z,100715.98
2019-05-16T06:14:30.895Z,100719.03
2019-05-16T06:17:00.851Z,100716.39
2019-05-16T06:19:30.105Z,100713.31
2019-05-16T06:22:01.246Z,100713.31
2019-05-16T06:24:30.605Z,100711.55
2019-05-16T06:27:00.901Z,100711.55
2019-05-16T06:29:31.055Z,100711.11
2019-05-16T06:32:00.379Z,100704.94
2019-05-16T06:34:30.201Z,100705.82
2019-05-16T06:37:00.475Z,100708.03
2019-05-16T06:39:41.588Z,100696.98
2019-05-16T06:42:00.681Z,100693.05
2019-05-16T06:44:30.821Z,100697.02
2019-05-16T06:47:15.828Z,100689.08
2019-05-16T06:49:31.682Z,100693.05
2019-05-16T06:52:00.800Z,100691.72
2019-05-16T06:54:30.071Z,100687.31
2019-05-16T06:57:00.199Z,100691.25
2019-05-16T06:59:29.825Z,100683.31
2019-05-16T07:02:00.463Z,100684.20
2019-05-16T07:04:30.469Z,100671.86
2019-05-16T07:07:02.760Z,100678.03
2019-05-16T07:09:30.619Z,100677.14
2019-05-16T07:11:59.962Z,100678.47
2019-05-16T07:14:31.346Z,100678.91
2019-05-16T07:17:00.411Z,100674.06
2019-05-16T07:19:30.114Z,100675.38
2019-05-16T07:21:59.876Z,100541.23
2019-05-16T07:24:30.526Z,100543.40
2019-05-16T07:27:00.323Z,100672.73
2019-05-16T07:29:30.835Z,100667.87
2019-05-16T07:32:00.557Z,100670.52
2019-05-16T07:34:31.202Z,100484.91
2019-05-16T07:37:00.557Z,100666.11
2019-05-16T07:39:30.651Z,100664.75
2019-05-16T07:42:00.110Z,100665.62
2019-05-16T07:44:30.921Z,100657.25
2019-05-16T07:47:01.108Z,100661.22
2019-05-16T07:49:30.602Z,100658.58
2019-05-16T07:52:00.619Z,100655.92
2019-05-16T07:54:30.804Z,100648.88
2019-05-16T07:57:11.665Z,100655.05
2019-05-16T07:59:31.900Z,100650.20
2019-05-16T08:02:01.112Z,100645.34
2019-05-16T08:04:30.680Z,100641.81
2019-05-16T08:07:00.632Z,100641.81
2019-05-16T08:09:30.750Z,100642.26
2019-05-16T08:12:01.846Z,100640.06
2019-05-16T08:14:34.844Z,100639.18
2019-05-16T08:17:01.867Z,100636.09
2019-05-16T08:19:31.173Z,100634.78
2019-05-16T08:22:01.255Z,100629.92
2019-05-16T08:24:35.542Z,100622.88
2019-05-16T08:27:01.823Z,100625.52
2019-05-16T08:29:31.834Z,100622.42
2019-05-16T08:32:02.113Z,100619.77
2019-05-16T08:34:32.495Z,100620.20
2019-05-16T08:37:01.696Z,100613.58
2019-05-16T08:39:31.313Z,100610.05
2019-05-16T08:42:07.831Z,100608.67
2019-05-16T08:44:32.481Z,100605.14
2019-05-16T08:49:32.744Z,100611.80
2019-05-16T08:52:01.932Z,100610.05
2019-05-16T08:54:32.005Z,100600.79
2019-05-16T08:57:20.879Z,100599.46
2019-05-16T08:59:33.832Z,100601.23
2019-05-16T09:02:03.636Z,100606.09
2019-05-16T09:07:04.118Z,100607.88
2019-05-16T09:10:19.016Z,100604.80
2019-05-16T09:10:21.223Z,100605.19
2019-05-16T09:10:32.873Z,100612.28
2019-05-16T09:12:04.163Z,100604.41
2019-05-16T09:14:36.299Z,100595.55
2019-05-16T09:17:07.310Z,100588.53
2019-05-16T09:19:36.839Z,100587.22
2019-05-16T09:22:13.370Z,100583.70
2019-05-16T09:24:37.814Z,100578.85
2019-05-16T09:27:12.176Z,100569.16
2019-05-16T09:29:38.013Z,100574.88
2019-05-16T09:32:16.625Z,100571.75
2019-05-16T09:34:38.152Z,100569.55
2019-05-16T09:37:08.932Z,100571.30
2019-05-16T09:39:40.828Z,100568.66
2019-05-16T09:42:30.856Z,100563.38
2019-05-16T09:44:59.977Z,100563.38
2019-05-16T09:47:29.130Z,100560.72
2019-05-16T09:49:58.267Z,100554.99
2019-05-16T09:52:27.517Z,100550.15
2019-05-16T09:54:57.690Z,100550.20
2019-05-16T09:57:27.824Z,100538.30
2019-05-16T09:59:57.367Z,100542.26
2019-05-16T10:02:27.353Z,100540.45
2019-05-16T10:04:58.099Z,100532.05
2019-05-16T10:07:28.497Z,100530.71
2019-05-16T10:09:57.774Z,100520.05
2019-05-16T10:12:27.036Z,100502.38
2019-05-16T10:14:59.441Z,100504.48
2019-05-16T10:17:27.346Z,100512.36
2019-05-16T10:20:00.119Z,100498.59
2019-05-16T10:22:27.432Z,100503.39
2019-05-16T10:24:57.327Z,100503.39
2019-05-16T10:27:26.741Z,100505.61
2019-05-16T10:29:57.477Z,100501.20
2019-05-16T10:32:27.395Z,100499.01
2019-05-16T10:34:57.274Z,100488.42
2019-05-16T10:37:26.993Z,100488.87
2019-05-16T10:39:57.304Z,100494.60
2019-05-16T10:42:29.064Z,100493.28
2019-05-16T10:44:57.896Z,100489.75
2019-05-16T10:47:30.995Z,100487.20
2019-05-16T10:49:57.948Z,100486.33
2019-05-16T10:52:27.189Z,100489.84
2019-05-16T10:55:01.842Z,100487.16
2019-05-16T10:57:29.814Z,100479.20
2019-05-16T11:00:08.911Z,100477.86
2019-05-16T11:02:29.015Z,100435.73
2019-05-16T11:05:08.380Z,100478.82
2019-05-16T11:07:29.858Z,100473.96
2019-05-16T11:10:03.291Z,100473.92
2019-05-16T11:12:45.829Z,100471.77
2019-05-16T11:15:00.798Z,100472.65
2019-05-16T11:17:29.949Z,100468.23
2019-05-16T11:19:59.132Z,100467.79
2019-05-16T11:22:30.031Z,100463.82
2019-05-16T11:24:59.270Z,100468.71
2019-05-16T11:27:28.391Z,100462.55
2019-05-16T11:29:57.584Z,100466.97
2019-05-16T11:32:27.091Z,100458.16
2019-05-16T11:34:56.274Z,100460.80
2019-05-16T11:37:27.777Z,100453.73
2019-05-16T11:39:57.197Z,100457.71
2019-05-16T11:42:27.974Z,100458.22
2019-05-16T11:44:58.056Z,100459.59
2019-05-16T11:47:27.432Z,100463.59
2019-05-16T11:49:57.054Z,100461.02
2019-05-16T11:52:26.293Z,100454.86
2019-05-16T11:54:57.165Z,100448.27
2019-05-16T11:57:26.488Z,100448.73
2019-05-16T11:59:56.823Z,100450.08
2019-05-16T12:02:27.910Z,100440.38
2019-05-16T12:04:57.904Z,100429.80
2019-05-16T12:07:33.717Z,100425.82
2019-05-16T12:09:58.026Z,100427.13
2019-05-16T12:12:27.291Z,100342.86
2019-05-16T12:14:58.333Z,100423.59
2019-05-16T12:17:28.024Z,100423.16
2019-05-16T12:19:57.643Z,100420.07
2019-05-16T12:22:26.938Z,100416.11
2019-05-16T12:24:57.452Z,100415.23
2019-05-16T12:27:32.820Z,100407.31
2019-05-16T12:29:58.977Z,100405.54
2019-05-16T12:32:28.269Z,100401.56
2019-05-16T12:34:57.445Z,100401.56
2019-05-16T12:37:27.572Z,100401.12
2019-05-16T12:39:57.368Z,100396.27
2019-05-16T12:42:27.138Z,100392.29
2019-05-16T12:44:56.446Z,100400.22
2019-05-16T12:47:25.586Z,100399.35
2019-05-16T12:49:56.629Z,100397.64
2019-05-16T12:52:27.093Z,100398.55
2019-05-16T12:54:56.985Z,100392.42
2019-05-16T12:57:30.190Z,100388.89
2019-05-16T12:59:57.341Z,100380.97
2019-05-16T13:02:27.298Z,100388.89
2019-05-16T13:04:57.580Z,100387.15
2019-05-16T13:07:27.455Z,100378.84
2019-05-16T13:09:56.689Z,100374.44
2019-05-16T13:12:27.142Z,100365.63
2019-05-16T13:14:56.411Z,100359.45
2019-05-16T13:17:27.471Z,100363.44
2019-05-16T13:19:57.604Z,100355.50
2019-05-16T13:22:27.587Z,100278.35
2019-05-16T13:24:57.618Z,100353.30
2019-05-16T13:27:26.967Z,100354.67
2019-05-16T13:29:58.133Z,100348.08
2019-05-16T13:32:27.178Z,100341.94
2019-05-16T13:34:58.967Z,100334.89
2019-05-16T13:37:27.675Z,100324.31
2019-05-16T13:39:57.007Z,100316.83
2019-05-16T13:42:27.269Z,100317.67
2019-05-16T13:44:57.757Z,100314.61
2019-05-16T13:47:27.151Z,100315.06
2019-05-16T13:49:56.286Z,100316.36
2019-05-16T13:52:28.229Z,100306.66
2019-05-16T13:54:56.525Z,100307.55
2019-05-16T13:57:28.299Z,100299.62
2019-05-16T13:59:56.826Z,100298.32
2019-05-16T14:02:26.753Z,100295.69
2019-05-16T14:04:56.861Z,100296.56
2019-05-16T14:07:26.249Z,100293.05
2019-05-16T14:09:57.715Z,100290.41
2019-05-16T14:12:26.807Z,100282.92
2019-05-16T14:14:56.086Z,100277.63
2019-05-16T14:17:27.522Z,100273.22
2019-05-16T14:19:57.298Z,100263.98
2019-05-16T14:22:27.780Z,100261.80
2019-05-16T14:24:57.184Z,100257.83
2019-05-16T14:27:26.881Z,100256.94
2019-05-16T14:29:57.803Z,100252.53
2019-05-16T14:32:27.113Z,100249.02
2019-05-16T14:34:58.989Z,100246.80
2019-05-16T14:37:27.160Z,100236.67
2019-05-16T14:40:00.867Z,100233.16
2019-05-16T14:42:28.044Z,100240.20
2019-05-16T14:45:10.371Z,100235.80
2019-05-16T14:47:28.396Z,100226.09
2019-05-16T14:49:57.569Z,100219.93
2019-05-16T14:52:27.114Z,100224.34
2019-05-16T14:54:57.520Z,100227.42
2019-05-16T14:57:27.401Z,99973.88
2019-05-16T14:59:56.650Z,100222.15
2019-05-16T15:02:27.565Z,100219.96
2019-05-16T15:04:57.014Z,100216.45
2019-05-16T15:07:27.716Z,100212.49
2019-05-16T15:09:57.041Z,100212.05
2019-05-16T15:12:26.785Z,100122.25
2019-05-16T15:14:58.663Z,100207.64
2019-05-16T15:17:27.528Z,100197.06
2019-05-16T15:19:57.211Z,100201.46
2019-05-16T15:22:27.389Z,100187.38
2019-05-16T15:24:59.024Z,100183.42
2019-05-16T15:27:27.455Z,100182.09
2019-05-16T15:29:57.693Z,100177.70
2019-05-16T15:32:28.280Z,100169.84
2019-05-16T15:34:57.850Z,100174.64
2019-05-16T15:37:27.434Z,100173.81
2019-05-16T15:39:56.674Z,100172.05
2019-05-16T15:42:27.730Z,100174.25
2019-05-16T15:44:56.651Z,100176.01
2019-05-16T15:47:27.866Z,100165.88
2019-05-16T15:49:59.729Z,100164.56
2019-05-16T15:52:30.874Z,100161.05
2019-05-16T15:55:00.421Z,100165.44
2019-05-16T15:57:30.979Z,100158.84
2019-05-16T16:00:00.253Z,100164.12
2019-05-16T16:02:29.372Z,100159.29
2019-05-16T16:04:58.517Z,100150.48
2019-05-16T16:07:27.683Z,100064.23
2019-05-16T16:09:57.666Z,100148.75
2019-05-16T16:12:26.944Z,99895.78
2019-05-16T16:14:57.356Z,100148.75
2019-05-16T16:17:29.089Z,100144.33
2019-05-16T16:19:57.966Z,100132.44
2019-05-16T16:22:27.208Z,100129.34
2019-05-16T16:24:57.435Z,100047.94
2019-05-16T16:27:27.459Z,100129.36
2019-05-16T16:29:56.747Z,100127.61
2019-05-16T16:32:26.852Z,100123.20
2019-05-16T16:34:57.488Z,100123.19
2019-05-16T16:37:27.433Z,100123.19
2019-05-16T16:39:57.648Z,100119.22
2019-05-16T16:42:27.301Z,100117.45
2019-05-16T16:44:56.696Z,100111.30
2019-05-16T16:47:26.963Z,100118.32
2019-05-16T16:49:59.297Z,100117.83
2019-05-16T16:52:27.388Z,100114.74
2019-05-16T16:54:56.895Z,100112.55
2019-05-16T16:57:27.094Z,100111.70
2019-05-16T16:59:56.966Z,100110.77
2019-05-16T17:02:29.514Z,100115.60
2019-05-16T17:05:01.642Z,100110.31
2019-05-16T17:07:29.619Z,100110.31
2019-05-16T17:09:58.813Z,100109.00
2019-05-16T17:12:27.955Z,100106.36
2019-05-16T17:14:58.270Z,100107.66
2019-05-16T17:17:27.417Z,100109.86
2019-05-16T17:19:56.866Z,100109.86
2019-05-16T17:22:26.630Z,100104.59
2019-05-16T17:24:56.651Z,100100.18
2019-05-16T17:27:27.047Z,100102.82
2019-05-16T17:29:56.862Z,100096.23
2019-05-16T17:32:27.516Z,100094.03
2019-05-16T17:34:56.822Z,100095.84
2019-05-16T17:37:26.695Z,100092.77
2019-05-16T17:39:56.929Z,100089.70
2019-05-16T17:42:27.147Z,100091.48
2019-05-16T17:44:56.689Z,100093.25
2019-05-16T17:47:26.297Z,100094.16
2019-05-16T17:49:55.496Z,100095.06
2019-05-16T17:52:27.175Z,100101.70
2019-05-16T17:54:55.545Z,100102.59
2019-05-16T17:57:24.710Z,100101.30
2019-05-16T17:59:53.886Z,100108.39
2019-05-16T18:02:23.029Z,100105.33
2019-05-16T18:04:52.262Z,100106.23
2019-05-16T18:07:21.440Z,99867.35
2019-05-16T18:09:50.634Z,100101.45
2019-05-16T18:12:19.922Z,100104.11
2019-05-16T18:14:50.452Z,100107.63
2019-05-16T18:17:19.784Z,100105.44
2019-05-16T18:20:09.352Z,100105.44
2019-05-16T18:22:38.653Z,100112.09
2019-05-16T18:25:08.642Z,100106.40
2019-05-16T18:27:37.793Z,100109.51
2019-05-16T18:30:07.242Z,99826.86
2019-05-16T18:32:37.336Z,100105.98
2019-05-16T18:35:07.439Z,100098.52
2019-05-16T18:37:36.765Z,100098.50
2019-05-16T18:40:07.251Z,100098.05
2019-05-16T18:42:37.512Z,100088.34
2019-05-16T18:45:07.429Z,100092.74
2019-05-16T18:47:37.837Z,100099.34
2019-05-16T18:50:08.840Z,100093.63
2019-05-16T18:52:38.274Z,100092.31
2019-05-16T18:55:08.876Z,100094.52
2019-05-16T18:57:38.024Z,99829.34
2019-05-16T19:00:10.826Z,100091.87
2019-05-16T19:02:38.692Z,100087.91
2019-05-16T19:05:08.848Z,100085.72
2019-05-16T19:07:38.020Z,100084.41
2019-05-16T19:10:07.900Z,100079.59
2019-05-16T19:12:40.068Z,100081.80
2019-05-16T19:15:09.645Z,100086.64
2019-05-16T19:17:38.900Z,100085.77
2019-05-16T19:20:08.788Z,100087.53
2019-05-16T19:22:38.007Z,100090.61
2019-05-16T19:25:07.504Z,100091.06
2019-05-16T19:27:37.137Z,100083.63
2019-05-16T19:30:07.160Z,100088.48
2019-05-16T19:32:39.178Z,99873.64
2019-05-16T19:35:07.411Z,100088.49
2019-05-16T19:37:40.325Z,100092.89
2019-05-16T19:40:08.432Z,100088.49
2019-05-16T19:42:37.819Z,100086.73
2019-05-16T19:45:07.194Z,100084.54
2019-05-16T19:47:40.342Z,100083.23
2019-05-16T19:50:07.980Z,100076.20
2019-05-16T19:52:39.510Z,100078.85
2019-05-16T19:55:09.068Z,100070.52
2019-05-16T19:57:38.224Z,100071.37
2019-05-16T20:00:07.589Z,100081.07
2019-05-16T20:02:37.053Z,100079.76
2019-05-16T20:05:06.488Z,100081.94
2019-05-16T20:07:37.221Z,100087.24
2019-05-16T20:10:09.497Z,100075.38
2019-05-16T20:12:41.297Z,100073.16
2019-05-16T20:15:12.009Z,100070.97
2019-05-16T20:17:51.967Z,100069.66
2019-05-16T20:20:12.193Z,100074.05
2019-05-16T20:22:41.358Z,100069.66
2019-05-16T20:25:10.732Z,100068.33
2019-05-16T20:27:40.025Z,100065.24
2019-05-16T20:30:10.289Z,100066.54
2019-05-16T20:32:39.431Z,100068.31
2019-05-16T20:35:09.125Z,99978.59
2019-05-16T20:37:38.362Z,100064.36
2019-05-16T20:40:12.351Z,100067.82
2019-05-16T20:42:40.069Z,100063.00
2019-05-16T20:45:09.873Z,100063.94
2019-05-16T20:47:39.038Z,100063.52
2019-05-16T20:50:08.391Z,100059.57
2019-05-16T20:52:38.126Z,100067.10
2019-05-16T20:55:08.035Z,100071.06
2019-05-16T20:57:37.944Z,100069.30
2019-05-16T21:00:10.050Z,100064.02
2019-05-16T21:02:39.205Z,100060.95
2019-05-16T21:05:08.851Z,100064.02
2019-05-16T21:07:38.113Z,100063.13
2019-05-16T21:10:08.340Z,100059.57
2019-05-16T21:12:40.207Z,100060.45
2019-05-16T21:15:09.135Z,100059.99
2019-05-16T21:17:38.300Z,100058.69
2019-05-16T21:20:07.848Z,100059.55
2019-05-16T21:22:37.303Z,100056.91
2019-05-16T21:25:06.605Z,100053.38
2019-05-16T21:27:37.870Z,100051.61
2019-05-16T21:30:07.520Z,100042.77
2019-05-16T21:32:36.903Z,100037.96
2019-05-16T21:35:07.168Z,100036.66
2019-05-16T21:37:37.407Z,100033.59
2019-05-16T21:40:08.304Z,100034.91
2019-05-16T21:42:37.564Z,100030.06
2019-05-16T21:45:07.073Z,100029.20
2019-05-16T21:47:36.921Z,100027.44
2019-05-16T21:50:07.541Z,100029.20
2019-05-16T21:52:37.160Z,100022.16
2019-05-16T21:55:07.614Z,100025.21
2019-05-16T21:57:37.781Z,100030.06
2019-05-16T22:00:13.424Z,100032.27
2019-05-16T22:02:42.704Z,100029.63
2019-05-16T22:05:12.021Z,100023.03
2019-05-16T22:07:41.154Z,100020.84
2019-05-16T22:10:10.519Z,100018.21
2019-05-16T22:12:40.215Z,100019.98
2019-05-16T22:15:09.406Z,100019.98
2019-05-16T22:17:38.540Z,100014.70
2019-05-16T22:20:08.220Z,100017.78
2019-05-16T22:22:38.248Z,100010.30
2019-05-16T22:25:08.002Z,100010.73
2019-05-16T22:27:37.143Z,100011.17
2019-05-16T22:30:10.691Z,100008.09
2019-05-16T22:32:39.819Z,100004.12
2019-05-16T22:35:09.564Z,100005.44
2019-05-16T22:37:49.339Z,100008.51
2019-05-16T22:40:09.706Z,100008.06
2019-05-16T22:42:38.822Z,100007.17
2019-05-16T22:45:10.653Z,100007.61
2019-05-16T22:47:39.772Z,100002.36
2019-05-16T22:50:09.814Z,99810.89
2019-05-16T22:52:38.947Z,100008.55
2019-05-16T22:55:08.404Z,100004.16
2019-05-16T22:57:37.598Z,99879.96
2019-05-16T23:00:07.963Z,100001.50
2019-05-16T23:02:37.107Z,100001.06
2019-05-16T23:05:07.382Z,99996.21
2019-05-16T23:07:36.938Z,99997.09
2019-05-16T23:10:07.272Z,99986.55
2019-05-16T23:12:37.311Z,99990.50
2019-05-16T23:15:06.970Z,99993.14
2019-05-16T23:17:37.537Z,99994.46
2019-05-16T23:20:07.019Z,99995.78
2019-05-16T23:22:36.668Z,99987.86
2019-05-16T23:25:06.744Z,99983.02
2019-05-16T23:27:36.777Z,99988.73
2019-05-16T23:30:07.416Z,99990.05
2019-05-16T23:32:36.668Z,99987.41
2019-05-16T23:35:06.891Z,99979.05
2019-05-16T23:37:37.077Z,99972.88
2019-05-16T23:40:07.272Z,99974.64
2019-05-16T23:42:37.082Z,99968.05
2019-05-16T23:45:08.661Z,99964.97
2019-05-16T23:47:37.956Z,99967.17
2019-05-16T23:50:07.658Z,99969.37
2019-05-16T23:52:37.109Z,99970.69
2019-05-16T23:55:08.179Z,99963.23
2019-05-16T23:57:37.718Z,99965.42
